Time;durP1;ratioP1;P1;durP2;ratioP2;P2;SDS_P1;SDS_P2;PMS_P1;PMS_P2;Temp;Humidity;BMP_temperature;BMP_pressure;BME280_temperature;BME280_humidity;BME280_pressure;Samples;Min_cycle;Max_cycle;Signal;HPM_P1;HPM_P2
2021/01/29 00:04:55;;;;;;;1999.90;999.90;;;;;;;1.55;65.76;99938.75;15704268;28;20048;-62
2021/01/29 00:12:28;;;;;;;1999.90;999.90;;;;;;;1.52;65.28;99962.16;15684256;28;20041;-62
2021/01/29 00:19:59;;;;;;;1999.90;999.90;;;;;;;1.68;65.13;99977.41;15708138;28;20095;-61
2021/01/29 00:27:31;;;;;;;1999.90;999.90;;;;;;;1.42;65.75;99967.78;15687382;28;20053;-60
2021/01/29 00:35:04;;;;;;;1999.90;999.90;;;;;;;1.43;65.85;99950.97;15685581;28;20052;-62
2021/01/29 00:42:36;;;;;;;1999.90;999.90;;;;;;;1.60;66.22;99958.78;15691189;28;20362;-62
2021/01/29 00:50:09;;;;;;;1999.90;999.90;;;;;;;1.89;64.61;99942.22;15741386;22;20397;-62
2021/01/29 00:57:42;;;;;;;1999.90;999.90;;;;;;;2.03;64.80;99942.31;15749911;28;20118;-61
2021/01/29 01:05:49;;;;;;;1999.90;999.90;;;;;;;2.13;64.78;99955.94;15733473;28;20398;-62
2021/01/29 01:13:33;;;;;;;;;;;;;;;2.22;64.69;99954.16;15701080;28;20036;-63
2021/01/29 01:21:23;;;;;;;1999.90;999.90;;;;;;;2.13;65.33;99960.63;15730463;28;19920;-63
2021/01/29 01:29:12;;;;;;;1999.90;999.90;;;;;;;1.89;65.54;99944.97;15695199;28;20140;-63
2021/01/29 01:36:44;;;;;;;;;;;;;;;1.44;66.92;99946.31;15684471;28;20041;-62
2021/01/29 01:44:39;;;;;;;1999.90;999.90;;;;;;;1.27;68.45;99944.03;15727563;28;19950;-62
2021/01/29 01:52:23;;;;;;;1999.90;999.90;;;;;;;1.50;67.68;99930.59;15699044;28;21286;-62
2021/01/29 02:00:18;;;;;;;1999.90;999.90;;;;;;;1.32;68.26;99932.13;15724978;28;20154;-62
2021/01/29 02:08:17;;;;;;;1999.90;999.90;;;;;;;1.29;68.26;99921.72;15712975;28;20406;-61
2021/01/29 02:16:15;;;;;;;1999.90;999.90;;;;;;;1.35;68.15;99910.38;15706477;28;20044;-63
2021/01/29 02:24:20;;;;;;;1999.90;999.90;;;;;;;1.40;68.18;99904.03;15692634;28;20044;-62
2021/01/29 02:32:27;;;;;;;1999.90;999.90;;;;;;;1.63;67.57;99894.94;15713561;28;20444;-63
2021/01/29 02:40:14;;;;;;;1999.90;999.90;;;;;;;1.53;67.88;99894.25;15735734;28;20049;-63
2021/01/29 02:47:54;;;;;;;1999.90;999.90;;;;;;;1.28;68.22;99878.88;15708700;28;20041;-63
2021/01/29 02:55:55;;;;;;;1999.90;999.90;;;;;;;1.46;67.61;99872.63;15720619;28;20161;-63
2021/01/29 03:03:44;;;;;;;1999.90;999.90;;;;;;;1.41;67.97;99869.91;15706881;28;20041;-63
2021/01/29 03:11:41;;;;;;;1999.90;999.90;;;;;;;1.53;68.35;99877.75;15728699;28;20048;-62
2021/01/29 03:19:37;;;;;;;1999.90;999.90;;;;;;;1.56;67.80;99855.97;15686262;28;20043;-63
2021/01/29 03:27:32;;;;;;;1999.90;999.90;;;;;;;1.58;68.56;99845.53;15709159;28;20064;-62
2021/01/29 03:35:27;;;;;;;1999.90;999.90;;;;;;;1.60;68.54;99843.28;15730757;28;20047;-63
2021/01/29 03:43:24;;;;;;;1999.90;999.90;;;;;;;1.22;69.58;99827.81;15701270;28;20049;-65
2021/01/29 03:51:20;;;;;;;1999.90;999.90;;;;;;;0.67;71.94;99808.09;15726969;28;20413;-65
2021/01/29 03:59:23;;;;;;;1999.90;999.90;;;;;;;0.46;72.60;99790.97;15775225;28;20056;-64
2021/01/29 04:07:20;;;;;;;1999.90;999.90;;;;;;;0.50;71.60;99773.63;15786613;28;20106;-63
2021/01/29 04:15:18;;;;;;;1999.90;999.90;;;;;;;0.56;72.29;99769.75;15778303;28;20040;-64
2021/01/29 04:22:55;;;;;;;1999.90;999.90;;;;;;;0.82;71.38;99764.78;15766148;28;20045;-63
2021/01/29 04:30:31;;;;;;;1999.90;999.90;;;;;;;0.96;70.30;99762.19;15752272;28;20114;-64
2021/01/29 04:38:09;;;;;;;1999.90;999.90;;;;;;;1.15;70.08;99738.31;15763764;28;20412;-63
2021/01/29 04:45:54;;;;;;;1999.90;999.90;;;;;;;0.94;69.79;99727.84;15752519;28;20147;-64
2021/01/29 04:53:48;;;;;;;1999.90;999.90;;;;;;;0.80;71.42;99703.84;15744459;28;20044;-64
2021/01/29 05:01:48;;;;;;;1999.90;999.90;;;;;;;1.04;69.64;99684.63;15711214;28;20101;-62
2021/01/29 05:09:55;;;;;;;1999.90;999.90;;;;;;;0.77;70.99;99660.50;15742310;28;20040;-64
2021/01/29 05:17:54;;;;;;;1999.90;999.90;;;;;;;0.60;71.92;99637.38;15754570;28;20565;-63
2021/01/29 05:26:05;;;;;;;1999.90;999.90;;;;;;;0.44;72.75;99647.75;15723357;28;20178;-64
2021/01/29 05:33:50;;;;;;;1999.90;999.90;;;;;;;0.67;71.97;99613.97;15692297;28;20436;-61
2021/01/29 05:41:49;;;;;;;1999.90;999.90;;;;;;;0.49;71.87;99610.06;15738629;28;20527;-62
2021/01/29 05:49:23;;;;;;;1999.90;999.90;;;;;;;0.55;71.48;99624.53;15732455;28;20040;-62
2021/01/29 05:57:22;;;;;;;1999.90;999.90;;;;;;;0.51;71.04;99605.06;15742953;28;20402;-61
2021/01/29 06:05:26;;;;;;;1999.90;999.90;;;;;;;0.43;71.83;99596.69;15704307;28;20036;-65
2021/01/29 06:13:14;;;;;;;1999.90;999.90;;;;;;;-0.15;73.50;99569.34;15718584;28;20195;-64
2021/01/29 06:21:16;;;;;;;1999.90;999.90;;;;;;;0.36;72.33;99547.66;15680482;28;20051;-63
2021/01/29 06:29:22;;;;;;;1999.90;999.90;;;;;;;0.28;72.43;99570.25;15724619;28;20045;-64
2021/01/29 06:37:10;;;;;;;1999.90;999.90;;;;;;;0.34;72.76;99591.03;15734519;28;20044;-62
2021/01/29 06:44:56;;;;;;;1999.90;999.90;;;;;;;0.25;71.98;99587.31;15717157;28;20036;-63
2021/01/29 06:53:15;;;;;;;1999.90;999.90;;;;;;;0.46;72.14;99557.69;15696971;22;20211;-57
2021/01/29 07:01:02;;;;;;;1999.90;999.90;;;;;;;0.24;72.74;99539.84;15624736;28;20044;-58
2021/01/29 07:08:50;;;;;;;1999.90;999.90;;;;;;;0.21;73.21;99532.22;15672297;28;20053;-59
2021/01/29 07:16:50;;;;;;;1999.90;999.90;;;;;;;0.20;73.33;99529.72;15672582;28;20041;-56
2021/01/29 07:24:39;;;;;;;1999.90;999.90;;;;;;;0.46;72.87;99525.56;15654369;28;20369;-57
2021/01/29 07:32:19;;;;;;;1999.90;999.90;;;;;;;0.63;70.94;99525.06;15638821;28;20383;-55
2021/01/29 07:40:20;;;;;;;1999.90;999.90;;;;;;;0.35;72.12;99498.56;15660896;28;20133;-55
2021/01/29 07:48:16;;;;;;;1999.90;999.90;;;;;;;0.43;70.93;99506.94;15685075;28;20052;-54
2021/01/29 07:56:09;;;;;;;1999.90;999.90;;;;;;;0.12;73.09;99490.06;15684586;28;20085;-57
2021/01/29 08:04:04;;;;;;;1999.90;999.90;;;;;;;0.50;70.71;99487.34;15683468;28;20389;-55
2021/01/29 08:11:40;;;;;;;1999.90;999.90;;;;;;;0.33;71.43;99468.66;15684565;28;20434;-57
2021/01/29 08:19:13;;;;;;;1999.90;999.90;;;;;;;0.64;70.70;99444.34;15651071;28;20451;-57
2021/01/29 08:27:07;;;;;;;1999.90;999.90;;;;;;;0.55;71.23;99433.22;15683310;28;20045;-58
2021/01/29 08:35:05;;;;;;;1999.90;999.90;;;;;;;0.76;70.08;99413.66;15663903;28;20060;-58
2021/01/29 08:42:51;;;;;;;1999.90;999.90;;;;;;;0.85;69.79;99401.72;15664215;28;20620;-57
2021/01/29 08:50:35;;;;;;;1999.90;999.90;;;;;;;0.97;69.77;99401.22;15679984;28;20521;-58
2021/01/29 08:58:16;;;;;;;1999.90;999.90;;;;;;;0.56;69.69;99392.84;15646121;28;20083;-57
2021/01/29 09:05:50;;;;;;;1999.90;999.90;;;;;;;1.02;69.09;99387.38;15680158;28;20110;-58
2021/01/29 09:13:25;;;;;;;1999.90;999.90;;;;;;;0.99;69.24;99368.78;15679852;28;20048;-59
2021/01/29 09:21:09;;;;;;;1999.90;999.90;;;;;;;0.82;69.14;99361.09;15646486;28;20520;-58
2021/01/29 09:28:45;;;;;;;1999.90;999.90;;;;;;;1.09;68.25;99359.53;15679386;28;20045;-59
2021/01/29 09:36:21;;;;;;;1999.90;999.90;;;;;;;1.23;68.13;99351.28;15678891;28;20155;-58
2021/01/29 09:44:07;;;;;;;1999.90;999.90;;;;;;;1.48;67.64;99347.25;15659889;28;20584;-57
2021/01/29 09:51:56;;;;;;;1999.90;999.90;;;;;;;1.67;66.41;99343.25;15659953;28;20466;-57
2021/01/29 09:59:39;;;;;;;1999.90;999.90;;;;;;;1.67;66.41;99340.50;15676578;28;20538;-59
2021/01/29 10:07:12;;;;;;;1999.90;999.90;;;;;;;1.99;66.05;99320.28;15657752;28;20056;-58
2021/01/29 10:14:53;;;;;;;1999.90;999.90;;;;;;;1.52;66.03;99318.81;15676319;28;20406;-58
2021/01/29 10:22:56;;;;;;;1999.90;999.90;;;;;;;1.56;65.53;99300.56;15657567;28;20048;-58
2021/01/29 10:30:37;;;;;;;1999.90;999.90;;;;;;;1.54;65.78;99288.28;15642370;28;20045;-57
2021/01/29 10:38:32;;;;;;;1999.90;999.90;;;;;;;1.63;65.66;99287.25;15657006;28;20417;-59
2021/01/29 10:46:47;;;;;;;1999.90;999.90;;;;;;;1.95;65.30;99275.22;15675080;28;20529;-59
2021/01/29 10:54:22;;;;;;;1999.90;999.90;;;;;;;2.69;63.03;99273.97;15673630;28;20120;-59
2021/01/29 11:02:00;;;;;;;1999.90;999.90;;;;;;;2.17;62.60;99266.19;15657419;28;20045;-58
2021/01/29 11:09:35;;;;;;;1999.90;999.90;;;;;;;2.25;62.49;99259.94;15662288;28;20044;-58
2021/01/29 11:17:12;;;;;;;1999.90;999.90;;;;;;;1.98;62.47;99240.78;15671499;28;20385;-52
2021/01/29 11:25:16;;;;;;;1999.90;999.90;;;;;;;2.12;62.50;99238.00;15655202;28;20045;-53
2021/01/29 11:32:54;;;;;;;;;;;;;;;2.19;62.52;99214.41;15638781;28;20096;-55
2021/01/29 11:40:31;;;;;;;1999.90;999.90;;;;;;;2.03;62.92;99202.16;15638579;28;20320;-52
2021/01/29 11:48:13;;;;;;;1999.90;999.90;;;;;;;2.09;62.80;99192.66;15654134;28;20071;-53
2021/01/29 11:55:48;;;;;;;1999.90;999.90;;;;;;;1.96;61.87;99190.75;15654606;28;20117;-50
2021/01/29 12:03:30;;;;;;;1999.90;999.90;;;;;;;2.39;61.18;99170.94;15672076;28;20045;-54
2021/01/29 12:11:12;;;;;;;1999.90;999.90;;;;;;;2.13;60.42;99165.31;15671780;28;20180;-56
2021/01/29 12:18:47;;;;;;;1999.90;999.90;;;;;;;2.40;58.74;99150.53;15653426;28;20087;-51
2021/01/29 12:26:26;;;;;;;1999.90;999.90;;;;;;;2.42;57.63;99129.03;15677550;28;20442;-53
2021/01/29 12:34:07;;;;;;;1999.90;999.90;;;;;;;2.39;56.85;99124.16;15681415;28;20476;-51
2021/01/29 12:41:48;;;;;;;1999.90;999.90;;;;;;;2.86;56.52;99122.53;15664599;28;20037;-52
2021/01/29 12:49:30;;;;;;;1999.90;999.90;;;;;;;2.82;56.33;99100.34;15681039;28;20044;-49
2021/01/29 12:57:12;;;;;;;1999.90;999.90;;;;;;;2.49;56.50;99104.59;15663546;28;20045;-54
2021/01/29 13:04:49;;;;;;;1999.90;999.90;;;;;;;2.59;56.20;99107.06;15663952;28;20536;-51
2021/01/29 13:12:33;;;;;;;1999.90;999.90;;;;;;;2.71;55.63;99101.78;15662206;28;20451;-49
2021/01/29 13:20:14;;;;;;;1999.90;999.90;;;;;;;2.67;55.72;99092.50;15678647;28;20362;-54
2021/01/29 13:27:49;;;;;;;1999.90;999.90;;;;;;;2.48;54.95;99097.47;15660623;28;20365;-54
2021/01/29 13:35:25;;;;;;;1999.90;999.90;;;;;;;3.01;54.33;99110.25;15677820;28;20071;-49
2021/01/29 13:42:58;;;;;;;1999.90;999.90;;;;;;;2.69;53.73;99119.72;15678240;28;20040;-52
2021/01/29 13:50:35;;;;;;;1999.90;999.90;;;;;;;2.68;54.01;99126.38;15678063;28;20045;-50
2021/01/29 13:58:13;;;;;;;1999.90;999.90;;;;;;;2.68;54.79;99126.38;15676245;28;20071;-49
2021/01/29 14:05:46;;;;;;;1999.90;999.90;;;;;;;2.96;54.86;99133.25;15658422;28;20194;-52
2021/01/29 14:13:41;;;;;;;1999.90;999.90;;;;;;;3.10;55.84;99142.19;15658327;28;20119;-49
2021/01/29 14:21:21;;;;;;;1999.90;999.90;;;;;;;3.09;55.62;99143.31;15672430;28;20068;-48
2021/01/29 14:28:59;;;;;;;1999.90;999.90;;;;;;;3.14;56.17;99156.97;15672756;28;20057;-51
2021/01/29 14:36:45;;;;;;;1999.90;999.90;;;;;;;2.85;56.30;99157.53;15660147;28;20463;-54
2021/01/29 14:44:35;;;;;;;1999.90;999.90;;;;;;;2.77;56.43;99163.84;15672383;28;20040;-53
2021/01/29 14:52:10;;;;;;;1999.90;999.90;;;;;;;2.93;56.02;99161.47;15672761;28;20049;-49
2021/01/29 14:59:50;;;;;;;1999.90;999.90;;;;;;;2.66;56.32;99165.25;15673657;28;20065;-53
2021/01/29 15:07:26;;;;;;;1999.90;999.90;;;;;;;2.67;57.51;99177.88;15667964;28;20075;-52
2021/01/29 15:15:00;;;;;;;1999.90;999.90;;;;;;;2.65;58.67;99177.41;15666816;28;20057;-49
2021/01/29 15:22:33;;;;;;;1999.90;999.90;;;;;;;2.52;60.54;99183.81;15688381;28;20128;-53
2021/01/29 15:30:10;;;;;;;1999.90;999.90;;;;;;;2.16;62.62;99184.75;15698659;28;20356;-52
2021/01/29 15:38:02;;;;;;;1999.90;999.90;;;;;;;1.52;66.11;99181.38;15684581;28;20053;-50
2021/01/29 15:45:55;;;;;;;1999.90;999.90;;;;;;;1.31;68.89;99171.97;15706643;28;20203;-52
2021/01/29 15:54:00;;;;;;;1999.90;999.90;;;;;;;1.28;69.94;99170.66;15689402;28;20382;-53
2021/01/29 16:01:35;;;;;;;1999.90;999.90;;;;;;;0.98;72.58;99183.13;15671864;28;20166;-55
2021/01/29 16:09:14;;;;;;;1999.90;999.90;;;;;;;1.02;73.57;99169.56;15703555;28;20122;-53
2021/01/29 16:16:46;;;;;;;1999.90;999.90;;;;;;;1.09;74.38;99172.72;15709304;28;20036;-53
2021/01/29 16:24:21;;;;;;;1999.90;999.90;;;;;;;0.99;74.97;99156.47;15681508;28;20597;-54
2021/01/29 16:31:59;;;;;;;1999.90;999.90;;;;;;;0.81;76.36;99167.25;15628563;28;20038;-54
2021/01/29 16:39:35;;;;;;;1999.90;999.90;;;;;;;0.98;76.58;99154.84;15705150;28;20064;-52
2021/01/29 16:47:32;;;;;;;1999.90;999.90;;;;;;;0.79;77.08;99147.53;15705455;28;20061;-52
2021/01/29 16:55:14;;;;;;;1999.90;999.90;;;;;;;0.74;77.48;99160.56;15688098;28;20498;-55
2021/01/29 17:02:49;;;;;;;1999.90;999.90;;;;;;;0.73;77.88;99165.25;15694136;28;20489;-52
2021/01/29 17:10:27;;;;;;;1999.90;999.90;;;;;;;0.99;77.46;99167.44;15662177;28;20148;-56
2021/01/29 17:18:02;;;;;;;1999.90;999.90;;;;;;;0.86;77.72;99171.84;15674755;28;20037;-52
2021/01/29 17:25:41;;;;;;;1999.90;999.90;;;;;;;0.74;77.21;99172.38;15686422;28;20048;-52
2021/01/29 17:33:20;;;;;;;1999.90;999.90;;;;;;;0.75;78.59;99178.66;15683413;28;20044;-51
2021/01/29 17:40:56;;;;;;;1999.90;999.90;;;;;;;0.75;78.29;99203.38;15679919;28;20041;-55
2021/01/29 17:48:32;;;;;;;1999.90;999.90;;;;;;;0.85;77.96;99214.16;15661365;28;20136;-54
2021/01/29 17:56:14;;;;;;;1999.90;999.90;;;;;;;1.00;77.27;99202.03;15691281;28;20072;-53
2021/01/29 18:04:02;;;;;;;1999.90;999.90;;;;;;;0.94;78.00;99204.09;15702542;28;20362;-53
2021/01/29 18:11:34;;;;;;;1999.90;999.90;;;;;;;0.74;79.27;99219.03;15698154;28;20036;-51
2021/01/29 18:19:13;;;;;;;1999.90;999.90;;;;;;;0.71;79.34;99214.13;15706893;28;20057;-54
2021/01/29 18:26:45;;;;;;;1999.90;999.90;;;;;;;0.74;79.14;99208.06;15659592;28;20099;-51
2021/01/29 18:34:22;;;;;;;1999.90;999.90;;;;;;;0.64;79.72;99208.25;15659396;28;20149;-52
2021/01/29 18:41:54;;;;;;;1999.90;999.90;;;;;;;0.54;80.14;99208.44;15710017;28;20045;-54
2021/01/29 18:49:27;;;;;;;1999.90;999.90;;;;;;;0.53;79.89;99215.88;15718243;28;20041;-51
2021/01/29 18:56:59;;;;;;;1999.90;999.90;;;;;;;0.50;79.56;99212.91;15662240;28;20565;-55
2021/01/29 19:04:31;;;;;;;1999.90;999.90;;;;;;;0.42;79.26;99214.44;15655334;28;20041;-52
2021/01/29 19:12:03;;;;;;;1999.90;999.90;;;;;;;0.48;78.93;99210.47;15673195;28;20497;-58
2021/01/29 19:19:37;;;;;;;1999.90;999.90;;;;;;;0.44;78.96;99195.72;15672766;28;20470;-56
2021/01/29 19:27:08;;;;;;;1999.90;999.90;;;;;;;0.50;78.27;99201.91;15668035;28;20052;-58
2021/01/29 19:34:41;;;;;;;1999.90;999.90;;;;;;;0.25;78.22;99195.78;15719542;28;20170;-56
2021/01/29 19:42:13;;;;;;;1999.90;999.90;;;;;;;0.36;77.32;99192.88;15667260;28;20055;-51
2021/01/29 19:49:45;;;;;;;1999.90;999.90;;;;;;;0.38;77.26;99185.13;15685580;28;20045;-52
2021/01/29 19:57:17;;;;;;;1999.90;999.90;;;;;;;0.23;78.42;99183.50;15692716;28;20068;-49
2021/01/29 20:04:49;;;;;;;1999.90;999.90;;;;;;;0.29;78.05;99179.53;15683669;28;20041;-55
2021/01/29 20:12:21;;;;;;;1999.90;999.90;;;;;;;0.18;78.49;99192.63;15669681;28;20045;-53
2021/01/29 20:19:54;;;;;;;1999.90;999.90;;;;;;;0.45;78.12;99189.13;15674685;28;20060;-55
2021/01/29 20:27:25;;;;;;;1999.90;999.90;;;;;;;0.39;78.57;99184.00;15657204;28;20068;-53
2021/01/29 20:34:58;;;;;;;1999.90;999.90;;;;;;;0.45;78.40;99182.81;15654286;28;20048;-49
2021/01/29 20:42:30;;;;;;;1999.90;999.90;;;;;;;0.43;78.79;99191.34;15673776;28;20502;-50
2021/01/29 20:50:03;;;;;;;1999.90;999.90;;;;;;;0.24;79.96;99196.91;15683954;28;20489;-52
2021/01/29 20:57:35;;;;;;;1999.90;999.90;;;;;;;0.50;78.59;99185.44;15698413;28;20061;-50
2021/01/29 21:05:08;;;;;;;1999.90;999.90;;;;;;;0.60;78.36;99193.50;15663510;28;20048;-51
2021/01/29 21:12:40;;;;;;;;;;;;;;;0.60;78.10;99198.97;15681739;28;20093;-56
2021/01/29 21:20:14;;;;;;;1999.90;999.90;;;;;;;0.32;79.80;99189.91;15676518;28;19924;-53
2021/01/29 21:27:46;;;;;;;1999.90;999.90;;;;;;;0.32;79.81;99202.81;15685211;28;20047;-50
2021/01/29 21:35:22;;;;;;;1999.90;999.90;;;;;;;0.52;79.18;99208.75;15680490;28;20095;-57
2021/01/29 21:42:54;;;;;;;1999.90;999.90;;;;;;;0.35;79.76;99203.03;15694406;28;20052;-55
2021/01/29 21:50:27;;;;;;;1999.90;999.90;;;;;;;0.43;79.60;99202.34;15677213;28;20081;-51
2021/01/29 21:57:59;;;;;;;1999.90;999.90;;;;;;;0.36;79.86;99201.91;15696535;28;20045;-56
2021/01/29 22:05:33;;;;;;;1999.90;999.90;;;;;;;0.26;80.20;99205.66;15677693;28;20040;-51
2021/01/29 22:13:05;;;;;;;1999.90;999.90;;;;;;;0.24;79.78;99201.59;15676156;28;20052;-55
2021/01/29 22:20:37;;;;;;;1999.90;999.90;;;;;;;0.32;80.20;99198.16;15666364;28;20049;-50
2021/01/29 22:28:09;;;;;;;1999.90;999.90;;;;;;;0.38;80.45;99183.19;15673350;28;20044;-53
2021/01/29 22:35:41;;;;;;;1999.90;999.90;;;;;;;0.22;79.96;99182.69;15672226;28;20037;-49
2021/01/29 22:43:13;;;;;;;1999.90;999.90;;;;;;;0.20;79.94;99186.81;15652243;28;20049;-52
2021/01/29 22:50:45;;;;;;;1999.90;999.90;;;;;;;0.20;79.81;99189.56;15676601;28;20053;-52
2021/01/29 22:58:17;;;;;;;1999.90;999.90;;;;;;;0.21;79.51;99194.78;15672096;28;20049;-52
2021/01/29 23:05:49;;;;;;;1999.90;999.90;;;;;;;0.23;79.63;99178.81;15657612;28;20052;-54
2021/01/29 23:13:21;;;;;;;1999.90;999.90;;;;;;;0.22;80.07;99187.34;15658887;28;20446;-52
2021/01/29 23:20:54;;;;;;;1999.90;999.90;;;;;;;0.42;79.58;99186.19;15677601;28;20489;-55
2021/01/29 23:28:29;;;;;;;1999.90;999.90;;;;;;;0.42;79.02;99194.41;15670578;28;20053;-52
2021/01/29 23:36:02;;;;;;;1999.90;999.90;;;;;;;0.30;79.48;99183.91;15671568;28;20056;-52
2021/01/29 23:43:33;;;;;;;1999.90;999.90;;;;;;;0.34;79.05;99178.63;15682319;28;20449;-55
2021/01/29 23:51:06;;;;;;;1999.90;999.90;;;;;;;0.32;79.41;99172.66;15655868;28;20083;-49
2021/01/29 23:58:37;;;;;;;1999.90;999.90;;;;;;;0.26;79.33;99150.78;15685273;28;20049;-56
